createdAt,value
2023-07-25T05:01:18.662Z,500.00
2023-07-25T05:02:18.686Z,500.00
2023-07-25T05:03:18.923Z,500.00
2023-07-25T05:04:18.778Z,500.00
2023-07-25T05:05:18.807Z,500.00
2023-07-25T05:06:18.899Z,500.00
2023-07-25T05:07:18.855Z,400.00
2023-07-25T05:08:18.874Z,400.00
2023-07-25T05:09:18.906Z,400.00
2023-07-25T05:10:18.911Z,400.00
2023-07-25T05:11:18.939Z,400.00
2023-07-25T05:12:18.966Z,400.00
2023-07-25T05:13:19.045Z,400.00
2023-07-25T05:14:19.081Z,400.00
2023-07-25T05:15:19.159Z,400.00
2023-07-25T05:16:19.227Z,400.00
2023-07-25T05:17:19.256Z,400.00
2023-07-25T05:18:19.327Z,400.00
2023-07-25T05:19:19.363Z,400.00
2023-07-25T05:20:19.410Z,400.00
2023-07-25T05:21:19.459Z,400.00
2023-07-25T05:22:19.515Z,400.00
2023-07-25T05:23:19.552Z,400.00
2023-07-25T05:24:19.592Z,400.00
2023-07-25T05:25:19.645Z,408.00
2023-07-25T05:26:19.674Z,453.00
2023-07-25T05:27:19.735Z,491.00
2023-07-25T05:28:19.775Z,500.00
2023-07-25T05:29:19.792Z,501.00
2023-07-25T05:30:19.890Z,499.00
2023-07-25T05:31:19.927Z,502.00
2023-07-25T05:32:19.916Z,499.00
2023-07-25T05:33:19.980Z,503.00
2023-07-25T05:34:19.999Z,500.00
2023-07-25T05:35:20.039Z,500.00
2023-07-25T05:36:20.066Z,501.00
2023-07-25T05:37:20.137Z,500.00
2023-07-25T05:38:20.139Z,501.00
2023-07-25T05:39:20.204Z,507.00
2023-07-25T05:40:20.227Z,508.00
2023-07-25T05:41:20.295Z,502.00
2023-07-25T05:42:20.348Z,500.00
2023-07-25T05:43:20.344Z,503.00
2023-07-25T05:44:20.372Z,501.00
2023-07-25T05:45:20.431Z,500.00
2023-07-25T05:46:20.476Z,503.00
2023-07-25T05:47:20.495Z,500.00
2023-07-25T05:48:20.545Z,500.00
2023-07-25T05:49:20.602Z,500.00
2023-07-25T05:50:20.615Z,500.00
2023-07-25T05:51:20.650Z,500.00
2023-07-25T05:52:20.687Z,509.00
2023-07-25T05:53:20.747Z,501.00
2023-07-25T05:54:20.812Z,500.00
2023-07-25T05:55:20.837Z,501.00
2023-07-25T05:56:20.912Z,504.00
2023-07-25T05:57:20.909Z,500.00
2023-07-25T05:58:20.952Z,503.00
2023-07-25T05:59:21.001Z,507.00
2023-07-25T06:00:22.535Z,503.00
2023-07-25T06:01:21.124Z,503.00
2023-07-25T06:02:21.143Z,501.00
2023-07-25T06:03:21.151Z,500.00
2023-07-25T06:04:21.169Z,511.00
2023-07-25T06:05:21.269Z,506.00
2023-07-25T06:06:21.290Z,502.00
2023-07-25T06:07:23.887Z,506.00
2023-07-25T06:08:21.335Z,505.00
2023-07-25T06:09:21.342Z,502.00
2023-07-25T06:10:21.310Z,503.00
2023-07-25T06:11:21.309Z,503.00
2023-07-25T06:12:21.265Z,512.00
2023-07-25T06:13:21.357Z,500.00
2023-07-25T06:14:21.258Z,500.00
2023-07-25T06:15:21.254Z,508.00
2023-07-25T06:16:21.336Z,505.00
2023-07-25T06:17:21.294Z,499.00
2023-07-25T06:18:21.274Z,512.00
2023-07-25T06:19:21.234Z,501.00
2023-07-25T06:20:21.222Z,500.00
2023-07-25T06:21:21.229Z,504.00
2023-07-25T06:22:21.200Z,501.00
2023-07-25T06:23:21.205Z,506.00
2023-07-25T06:24:21.254Z,512.00
2023-07-25T06:25:21.194Z,503.00
2023-07-25T06:26:21.177Z,502.00
2023-07-25T06:27:21.179Z,503.00
2023-07-25T06:28:21.161Z,501.00
2023-07-25T06:29:21.196Z,502.00
2023-07-25T06:30:21.171Z,500.00
2023-07-25T06:31:21.207Z,505.00
2023-07-25T06:32:21.158Z,504.00
2023-07-25T06:33:21.160Z,500.00
2023-07-25T06:34:21.171Z,503.00
2023-07-25T06:35:21.129Z,506.00
2023-07-25T06:36:21.164Z,500.00
2023-07-25T06:37:21.098Z,501.00
2023-07-25T06:38:21.123Z,509.00
2023-07-25T06:39:21.103Z,506.00
2023-07-25T06:40:21.108Z,504.00
2023-07-25T06:41:21.110Z,504.00
2023-07-25T06:42:21.066Z,506.00
2023-07-25T06:43:21.093Z,516.00
2023-07-25T06:44:21.067Z,501.00
2023-07-25T06:45:21.073Z,506.00
2023-07-25T06:46:21.084Z,508.00
2023-07-25T06:47:21.079Z,500.00
2023-07-25T06:48:21.066Z,515.00
2023-07-25T06:49:21.019Z,509.00
2023-07-25T06:50:21.035Z,508.00
2023-07-25T06:51:21.009Z,507.00
2023-07-25T06:52:21.015Z,502.00
2023-07-25T06:53:21.019Z,506.00
2023-07-25T06:54:21.021Z,502.00
2023-07-25T06:55:21.004Z,512.00
2023-07-25T06:56:21.002Z,506.00
2023-07-25T06:57:20.963Z,509.00
2023-07-25T06:58:20.993Z,508.00
2023-07-25T06:59:20.988Z,504.00
2023-07-25T07:00:20.994Z,507.00
2023-07-25T07:01:21.030Z,512.00
2023-07-25T07:02:21.065Z,510.00
2023-07-25T07:03:21.064Z,501.00
2023-07-25T07:04:21.001Z,504.00
2023-07-25T07:05:29.444Z,501.00
2023-07-25T07:06:22.089Z,502.00
2023-07-25T07:07:21.052Z,503.00
2023-07-25T07:08:21.060Z,505.00
2023-07-25T07:09:21.058Z,510.00
2023-07-25T07:10:21.032Z,510.00
2023-07-25T07:11:21.011Z,514.00
2023-07-25T07:12:21.029Z,505.00
2023-07-25T07:13:20.991Z,509.00
2023-07-25T07:14:21.000Z,507.00
2023-07-25T07:15:21.007Z,506.00
2023-07-25T07:16:21.010Z,513.00
2023-07-25T07:17:21.037Z,511.00
2023-07-25T07:18:21.079Z,507.00
2023-07-25T07:19:21.139Z,509.00
2023-07-25T07:20:21.164Z,508.00
2023-07-25T07:21:21.207Z,505.00
2023-07-25T07:22:21.234Z,515.00
2023-07-25T07:23:21.271Z,511.00
2023-07-25T07:24:21.337Z,511.00
2023-07-25T07:25:21.344Z,507.00
2023-07-25T07:26:21.405Z,516.00
2023-07-25T07:27:21.419Z,511.00
2023-07-25T07:28:21.445Z,511.00
2023-07-25T07:29:21.521Z,501.00
2023-07-25T07:30:21.521Z,514.00
2023-07-25T07:31:21.570Z,504.00
2023-07-25T07:32:21.652Z,506.00
2023-07-25T07:33:21.686Z,505.00
2023-07-25T07:34:21.690Z,508.00
2023-07-25T07:35:21.730Z,513.00
2023-07-25T07:36:21.777Z,514.00
2023-07-25T07:37:21.793Z,510.00
2023-07-25T07:38:21.822Z,511.00
2023-07-25T07:39:21.894Z,521.00
2023-07-25T07:40:21.883Z,509.00
2023-07-25T07:41:21.929Z,507.00
2023-07-25T07:42:22.007Z,515.00
2023-07-25T07:43:22.032Z,507.00
2023-07-25T07:44:23.132Z,504.00
2023-07-25T07:45:22.035Z,512.00
2023-07-25T07:46:22.037Z,501.00
2023-07-25T07:47:22.076Z,509.00
2023-07-25T07:48:22.041Z,504.00
2023-07-25T07:49:21.991Z,505.00
2023-07-25T07:50:22.025Z,513.00
2023-07-25T07:51:22.006Z,509.00
2023-07-25T07:52:33.186Z,503.00
2023-07-25T07:53:23.007Z,504.00
2023-07-25T07:54:21.983Z,504.00
2023-07-25T07:55:21.957Z,506.00
2023-07-25T07:56:21.964Z,501.00
2023-07-25T07:57:21.967Z,510.00
2023-07-25T07:58:21.988Z,506.00
2023-07-25T07:59:21.916Z,503.00
2023-07-25T08:00:21.928Z,504.00
2023-07-25T08:01:21.992Z,500.00
2023-07-25T08:02:22.000Z,512.00
2023-07-25T08:03:21.940Z,529.00
